sensor_id;sensor_type;location;lat;lon;timestamp;P1;P2;P0
58740;PMS7003;44512;53.046;18.604;2023-02-28T00:04:25;28;22;15
58740;PMS7003;44512;53.046;18.604;2023-02-28T00:14:54;26;22;15
58740;PMS7003;44512;53.046;18.604;2023-02-28T00:25:23;28;22;14
58740;PMS7003;44512;53.046;18.604;2023-02-28T00:35:51;22;18;14
58740;PMS7003;44512;53.046;18.604;2023-02-28T00:46:19;31;23;15
58740;PMS7003;44512;53.046;18.604;2023-02-28T00:56:48;20;19;15
58740;PMS7003;44512;53.046;18.604;2023-02-28T01:07:16;29;20;13
58740;PMS7003;44512;53.046;18.604;2023-02-28T01:17:45;25;21;15
58740;PMS7003;44512;53.046;18.604;2023-02-28T01:28:13;22;20;15
58740;PMS7003;44512;53.046;18.604;2023-02-28T01:38:42;28;25;16
58740;PMS7003;44512;53.046;18.604;2023-02-28T01:49:14;24;21;15
58740;PMS7003;44512;53.046;18.604;2023-02-28T01:59:40;32;26;16
58740;PMS7003;44512;53.046;18.604;2023-02-28T02:10:11;35;24;16
58740;PMS7003;44512;53.046;18.604;2023-02-28T02:52:05;29;22;15
58740;PMS7003;44512;53.046;18.604;2023-02-28T03:02:29;34;23;16
58740;PMS7003;44512;53.046;18.604;2023-02-28T03:13:19;30;24;15
58740;PMS7003;44512;53.046;18.604;2023-02-28T03:23:30;28;24;18
58740;PMS7003;44512;53.046;18.604;2023-02-28T03:44:24;29;22;15
58740;PMS7003;44512;53.046;18.604;2023-02-28T03:54:52;26;22;17
58740;PMS7003;44512;53.046;18.604;2023-02-28T04:05:20;32;24;17
58740;PMS7003;44512;53.046;18.604;2023-02-28T04:15:49;28;22;16
58740;PMS7003;44512;53.046;18.604;2023-02-28T04:26:17;33;26;18
58740;PMS7003;44512;53.046;18.604;2023-02-28T04:36:45;28;22;18
58740;PMS7003;44512;53.046;18.604;2023-02-28T04:47:14;32;27;19
58740;PMS7003;44512;53.046;18.604;2023-02-28T04:57:42;29;25;17
58740;PMS7003;44512;53.046;18.604;2023-02-28T05:08:11;29;25;17
58740;PMS7003;44512;53.046;18.604;2023-02-28T05:18:39;32;26;19
58740;PMS7003;44512;53.046;18.604;2023-02-28T05:29:08;33;26;17
58740;PMS7003;44512;53.046;18.604;2023-02-28T05:39:36;32;27;20
58740;PMS7003;44512;53.046;18.604;2023-02-28T05:50:05;32;26;19
58740;PMS7003;44512;53.046;18.604;2023-02-28T06:00:33;31;26;18
58740;PMS7003;44512;53.046;18.604;2023-02-28T06:11:05;29;24;17
58740;PMS7003;44512;53.046;18.604;2023-02-28T06:21:30;36;30;21
58740;PMS7003;44512;53.046;18.604;2023-02-28T06:31:59;41;29;22
58740;PMS7003;44512;53.046;18.604;2023-02-28T06:42:27;44;37;26
58740;PMS7003;44512;53.046;18.604;2023-02-28T06:52:55;49;39;28
58740;PMS7003;44512;53.046;18.604;2023-02-28T07:03:24;59;44;30
58740;PMS7003;44512;53.046;18.604;2023-02-28T07:13:53;68;51;34
58740;PMS7003;44512;53.046;18.604;2023-02-28T07:24:21;77;55;35
58740;PMS7003;44512;53.046;18.604;2023-02-28T07:34:50;93;68;44
58740;PMS7003;44512;53.046;18.604;2023-02-28T07:45:18;101;82;51
58740;PMS7003;44512;53.046;18.604;2023-02-28T07:55:47;112;87;53
58740;PMS7003;44512;53.046;18.604;2023-02-28T08:06:19;93;68;44
58740;PMS7003;44512;53.046;18.604;2023-02-28T08:16:44;73;52;34
58740;PMS7003;44512;53.046;18.604;2023-02-28T08:27:12;56;41;29
58740;PMS7003;44512;53.046;18.604;2023-02-28T08:37:41;52;39;26
58740;PMS7003;44512;53.046;18.604;2023-02-28T08:48:09;40;31;22
58740;PMS7003;44512;53.046;18.604;2023-02-28T08:58:38;32;26;18
58740;PMS7003;44512;53.046;18.604;2023-02-28T09:09:06;36;26;18
58740;PMS7003;44512;53.046;18.604;2023-02-28T09:19:35;28;18;13
58740;PMS7003;44512;53.046;18.604;2023-02-28T09:35:08;19;14;10
58740;PMS7003;44512;53.046;18.604;2023-02-28T09:45:37;19;16;13
58740;PMS7003;44512;53.046;18.604;2023-02-28T09:56:09;18;13;10
58740;PMS7003;44512;53.046;18.604;2023-02-28T10:06:35;31;22;16
58740;PMS7003;44512;53.046;18.604;2023-02-28T10:27:31;25;19;13
58740;PMS7003;44512;53.046;18.604;2023-02-28T10:37:59;21;19;14
58740;PMS7003;44512;53.046;18.604;2023-02-28T10:48:29;20;18;13
58740;PMS7003;44512;53.046;18.604;2023-02-28T11:09:34;18;13;11
58740;PMS7003;44512;53.046;18.604;2023-02-28T11:19:56;19;12;9
58740;PMS7003;44512;53.046;18.604;2023-02-28T11:51:21;20;17;10
58740;PMS7003;44512;53.046;18.604;2023-02-28T12:12:21;16;14;10
58740;PMS7003;44512;53.046;18.604;2023-02-28T12:33:12;21;16;12
58740;PMS7003;44512;53.046;18.604;2023-02-28T12:43:42;19;13;10
58740;PMS7003;44512;53.046;18.604;2023-02-28T13:15:16;18;12;8
58740;PMS7003;44512;53.046;18.604;2023-02-28T13:46:31;16;12;8
58740;PMS7003;44512;53.046;18.604;2023-02-28T13:57:05;9;8;7
58740;PMS7003;44512;53.046;18.604;2023-02-28T14:07:29;8;8;6
58740;PMS7003;44512;53.046;18.604;2023-02-28T14:17:55;6;6;4
58740;PMS7003;44512;53.046;18.604;2023-02-28T14:49:23;12;10;7
58740;PMS7003;44512;53.046;18.604;2023-02-28T15:00:35;10;8;6
58740;PMS7003;44512;53.046;18.604;2023-02-28T15:10:19;8;6;6
58740;PMS7003;44512;53.046;18.604;2023-02-28T15:20:46;10;8;5
58740;PMS7003;44512;53.046;18.604;2023-02-28T15:31:19;10;7;5
58740;PMS7003;44512;53.046;18.604;2023-02-28T15:41:43;13;9;7
58740;PMS7003;44512;53.046;18.604;2023-02-28T15:52:15;13;8;6
58740;PMS7003;44512;53.046;18.604;2023-02-28T16:02:40;9;8;6
58740;PMS7003;44512;53.046;18.604;2023-02-28T16:13:08;12;11;7
58740;PMS7003;44512;53.046;18.604;2023-02-28T16:23:36;13;10;8
58740;PMS7003;44512;53.046;18.604;2023-02-28T16:34:05;15;13;9
58740;PMS7003;44512;53.046;18.604;2023-02-28T16:44:34;16;13;10
58740;PMS7003;44512;53.046;18.604;2023-02-28T16:55:02;18;15;11
58740;PMS7003;44512;53.046;18.604;2023-02-28T17:05:33;19;15;11
58740;PMS7003;44512;53.046;18.604;2023-02-28T17:15:58;16;15;11
58740;PMS7003;44512;53.046;18.604;2023-02-28T17:26:27;17;16;11
58740;PMS7003;44512;53.046;18.604;2023-02-28T17:36:55;22;17;13
58740;PMS7003;44512;53.046;18.604;2023-02-28T17:47:24;34;31;21
58740;PMS7003;44512;53.046;18.604;2023-02-28T17:57:52;64;47;31
58740;PMS7003;44512;53.046;18.604;2023-02-28T18:08:21;71;53;34
58740;PMS7003;44512;53.046;18.604;2023-02-28T18:18:49;71;54;36
58740;PMS7003;44512;53.046;18.604;2023-02-28T18:29:23;79;59;38
58740;PMS7003;44512;53.046;18.604;2023-02-28T18:39:46;108;86;52
58740;PMS7003;44512;53.046;18.604;2023-02-28T18:50:15;144;111;66
58740;PMS7003;44512;53.046;18.604;2023-02-28T19:00:43;115;91;56
58740;PMS7003;44512;53.046;18.604;2023-02-28T19:11:13;113;91;54
58740;PMS7003;44512;53.046;18.604;2023-02-28T19:21:40;107;89;54
58740;PMS7003;44512;53.046;18.604;2023-02-28T19:32:09;151;118;71
58740;PMS7003;44512;53.046;18.604;2023-02-28T19:42:38;115;90;53
58740;PMS7003;44512;53.046;18.604;2023-02-28T19:53:06;115;93;59
58740;PMS7003;44512;53.046;18.604;2023-02-28T20:03:35;129;94;58
58740;PMS7003;44512;53.046;18.604;2023-02-28T20:14:03;130;95;58
58740;PMS7003;44512;53.046;18.604;2023-02-28T20:24:32;117;92;57
58740;PMS7003;44512;53.046;18.604;2023-02-28T20:35:00;95;80;47
58740;PMS7003;44512;53.046;18.604;2023-02-28T20:45:29;114;85;55
58740;PMS7003;44512;53.046;18.604;2023-02-28T20:55:58;113;85;52
58740;PMS7003;44512;53.046;18.604;2023-02-28T21:06:30;105;85;50
58740;PMS7003;44512;53.046;18.604;2023-02-28T21:16:54;107;81;50
58740;PMS7003;44512;53.046;18.604;2023-02-28T21:27:23;112;91;55
58740;PMS7003;44512;53.046;18.604;2023-02-28T21:37:51;104;83;52
58740;PMS7003;44512;53.046;18.604;2023-02-28T21:48:20;89;65;42
58740;PMS7003;44512;53.046;18.604;2023-02-28T21:58:49;81;62;39
58740;PMS7003;44512;53.046;18.604;2023-02-28T22:09:17;62;47;31
58740;PMS7003;44512;53.046;18.604;2023-02-28T22:19:46;70;53;34
58740;PMS7003;44512;53.046;18.604;2023-02-28T22:30:14;67;48;32
58740;PMS7003;44512;53.046;18.604;2023-02-28T22:40:43;63;45;27
58740;PMS7003;44512;53.046;18.604;2023-02-28T22:51:13;56;43;28
58740;PMS7003;44512;53.046;18.604;2023-02-28T23:01:40;62;43;28
58740;PMS7003;44512;53.046;18.604;2023-02-28T23:12:08;54;39;27
58740;PMS7003;44512;53.046;18.604;2023-02-28T23:22:36;57;41;27
58740;PMS7003;44512;53.046;18.604;2023-02-28T23:33:05;60;43;29
58740;PMS7003;44512;53.046;18.604;2023-02-28T23:43:33;69;46;30
58740;PMS7003;44512;53.046;18.604;2023-02-28T23:54:02;46;39;27
